FLI470 EKVG-EKBI
Flight info
| Callsign | FLI470 |
|---|---|
| Flight time | 1h 31m |
| Altitude | 37000 |
| Route | ODEVA DCT GUNPA/N0438F370 DCT GELBA |
| Aircraft | A320/M-SDE3FGHIRWY/LB1 |
Departure
| Time | 2026-04-28 13:53 |
|---|---|
| Airport | Vágar Airport (EKVG) |
Arrival
| Time | 2026-04-28 15:24 |
|---|---|
| Airport | Billund Airport (EKBI) |
| Time | Latitude | Longitude | Altitude | Speed | Heading |
|---|---|---|---|---|---|
| 2026-04-28 13:43 | 62.06689 | -7.27946 | 289 ft | 0 kts | 28° |
| 2026-04-28 13:47 | 62.06678 | -7.27959 | 289 ft | 4 kts | 28° |
| 2026-04-28 13:47 | 62.06654 | -7.27986 | 289 ft | 4 kts | 28° |
| 2026-04-28 13:47 | 62.06641 | -7.28000 | 292 ft | 0 kts | 28° |
| 2026-04-28 13:49 | 62.06649 | -7.28001 | 294 ft | 1 kts | 354° |
| 2026-04-28 13:49 | 62.06656 | -7.28053 | 293 ft | 8 kts | 255° |
| 2026-04-28 13:49 | 62.06604 | -7.28087 | 291 ft | 9 kts | 179° |
| 2026-04-28 13:50 | 62.06534 | -7.28116 | 289 ft | 12 kts | 201° |
| 2026-04-28 13:50 | 62.06492 | -7.28244 | 285 ft | 14 kts | 286° |
| 2026-04-28 13:50 | 62.06541 | -7.28458 | 289 ft | 17 kts | 298° |
| 2026-04-28 13:50 | 62.06598 | -7.28686 | 287 ft | 18 kts | 297° |
| 2026-04-28 13:51 | 62.06658 | -7.28924 | 280 ft | 19 kts | 298° |
| 2026-04-28 13:51 | 62.06704 | -7.29130 | 284 ft | 11 kts | 282° |
| 2026-04-28 13:51 | 62.06731 | -7.29227 | 282 ft | 1 kts | 8° |
| 2026-04-28 13:51 | 62.06732 | -7.29223 | 283 ft | 0 kts | 30° |
| 2026-04-28 13:52 | 62.06728 | -7.29209 | 283 ft | 1 kts | 118° |
| 2026-04-28 13:52 | 62.06696 | -7.29079 | 280 ft | 38 kts | 117° |
| 2026-04-28 13:52 | 62.06439 | -7.28047 | 292 ft | 115 kts | 117° |
| 2026-04-28 13:52 | 62.06000 | -7.26211 | 468 ft | 152 kts | 119° |
| 2026-04-28 13:53 | 62.05527 | -7.24085 | 919 ft | 167 kts | 122° |
| 2026-04-28 13:53 | 62.04976 | -7.21739 | 1486 ft | 190 kts | 123° |
| 2026-04-28 13:53 | 62.04343 | -7.19144 | 2091 ft | 207 kts | 125° |
| 2026-04-28 13:53 | 62.03589 | -7.16247 | 2125 ft | 242 kts | 124° |
| 2026-04-28 13:54 | 62.02709 | -7.12969 | 2411 ft | 263 kts | 124° |
| 2026-04-28 13:54 | 62.01822 | -7.09541 | 3304 ft | 266 kts | 123° |
| 2026-04-28 13:54 | 62.00936 | -7.06037 | 4142 ft | 271 kts | 123° |
| 2026-04-28 13:54 | 62.00066 | -7.02420 | 4995 ft | 277 kts | 121° |
| 2026-04-28 13:55 | 61.99210 | -6.98700 | 5816 ft | 282 kts | 121° |
| 2026-04-28 13:55 | 61.98351 | -6.94901 | 6596 ft | 287 kts | 120° |
| 2026-04-28 13:55 | 61.97483 | -6.91063 | 7423 ft | 290 kts | 120° |
| 2026-04-28 13:55 | 61.96600 | -6.87178 | 8223 ft | 293 kts | 120° |
| 2026-04-28 13:56 | 61.96008 | -6.84591 | 8751 ft | 296 kts | 120° |
| 2026-04-28 13:56 | 61.95096 | -6.80630 | 9553 ft | 300 kts | 120° |
| 2026-04-28 13:56 | 61.93865 | -6.75314 | 10572 ft | 305 kts | 119° |
| 2026-04-28 13:56 | 61.92892 | -6.71149 | 10901 ft | 326 kts | 119° |
| 2026-04-28 13:57 | 61.91846 | -6.66680 | 11122 ft | 348 kts | 119° |
| 2026-04-28 13:57 | 61.91111 | -6.63532 | 11459 ft | 355 kts | 118° |
| 2026-04-28 13:57 | 61.90200 | -6.58614 | 12106 ft | 363 kts | 108° |
| 2026-04-28 13:57 | 61.89622 | -6.53426 | 12793 ft | 368 kts | 104° |
| 2026-04-28 13:58 | 61.89046 | -6.48108 | 13485 ft | 372 kts | 105° |
| 2026-04-28 13:58 | 61.88455 | -6.42740 | 14170 ft | 376 kts | 105° |
| 2026-04-28 13:58 | 61.87851 | -6.37310 | 14761 ft | 380 kts | 105° |
| 2026-04-28 13:58 | 61.87239 | -6.31826 | 15360 ft | 384 kts | 105° |
| 2026-04-28 13:59 | 61.86620 | -6.26295 | 15958 ft | 388 kts | 105° |
| 2026-04-28 13:59 | 61.85992 | -6.20712 | 16546 ft | 391 kts | 105° |
| 2026-04-28 13:59 | 61.85357 | -6.15078 | 17135 ft | 395 kts | 105° |
| 2026-04-28 13:59 | 61.84713 | -6.09380 | 17714 ft | 399 kts | 105° |
| 2026-04-28 14:00 | 61.84061 | -6.03639 | 18294 ft | 403 kts | 105° |
| 2026-04-28 14:00 | 61.83402 | -5.97854 | 18841 ft | 407 kts | 105° |
| 2026-04-28 14:00 | 61.82734 | -5.92014 | 19346 ft | 410 kts | 105° |
| 2026-04-28 14:00 | 61.82061 | -5.86137 | 19872 ft | 413 kts | 105° |
| 2026-04-28 14:01 | 61.81378 | -5.80210 | 20405 ft | 416 kts | 105° |
| 2026-04-28 14:01 | 61.80688 | -5.74261 | 20933 ft | 418 kts | 105° |
| 2026-04-28 14:01 | 61.79988 | -5.68263 | 21462 ft | 421 kts | 105° |
| 2026-04-28 14:01 | 61.79283 | -5.62233 | 21990 ft | 424 kts | 105° |
| 2026-04-28 14:02 | 61.78573 | -5.56170 | 22508 ft | 427 kts | 105° |
| 2026-04-28 14:02 | 61.77862 | -5.50103 | 23032 ft | 421 kts | 104° |
| 2026-04-28 14:02 | 61.77156 | -5.44119 | 23662 ft | 419 kts | 104° |
| 2026-04-28 14:02 | 61.76453 | -5.38236 | 24130 ft | 420 kts | 104° |
| 2026-04-28 14:03 | 61.75720 | -5.32158 | 24551 ft | 422 kts | 104° |
| 2026-04-28 14:03 | 61.75003 | -5.26217 | 24941 ft | 425 kts | 104° |
| 2026-04-28 14:03 | 61.74273 | -5.20159 | 25315 ft | 427 kts | 104° |
| 2026-04-28 14:03 | 61.73537 | -5.14075 | 25672 ft | 430 kts | 104° |
| 2026-04-28 14:04 | 61.72794 | -5.07954 | 26023 ft | 432 kts | 104° |
| 2026-04-28 14:04 | 61.72044 | -5.01805 | 26370 ft | 434 kts | 104° |
| 2026-04-28 14:04 | 61.71287 | -4.95625 | 26712 ft | 436 kts | 105° |
| 2026-04-28 14:04 | 61.70523 | -4.89421 | 27046 ft | 438 kts | 105° |
| 2026-04-28 14:05 | 61.69752 | -4.83187 | 27367 ft | 441 kts | 105° |
| 2026-04-28 14:05 | 61.68975 | -4.76934 | 27681 ft | 443 kts | 105° |
| 2026-04-28 14:05 | 61.68193 | -4.70649 | 27986 ft | 445 kts | 105° |
| 2026-04-28 14:05 | 61.67405 | -4.64318 | 28288 ft | 447 kts | 105° |
| 2026-04-28 14:06 | 61.66612 | -4.57980 | 28573 ft | 449 kts | 105° |
| 2026-04-28 14:06 | 61.65810 | -4.51611 | 28851 ft | 451 kts | 105° |
| 2026-04-28 14:06 | 61.65002 | -4.45217 | 29121 ft | 453 kts | 105° |
| 2026-04-28 14:06 | 61.64191 | -4.38812 | 29381 ft | 455 kts | 105° |
| 2026-04-28 14:07 | 61.63372 | -4.32373 | 29633 ft | 456 kts | 105° |
| 2026-04-28 14:07 | 61.62543 | -4.25911 | 29872 ft | 458 kts | 105° |
| 2026-04-28 14:07 | 61.61706 | -4.19433 | 30116 ft | 460 kts | 105° |
| 2026-04-28 14:07 | 61.60868 | -4.12946 | 30339 ft | 461 kts | 105° |
| 2026-04-28 14:08 | 61.60023 | -4.06430 | 30556 ft | 463 kts | 105° |
| 2026-04-28 14:08 | 61.59169 | -3.99898 | 30767 ft | 464 kts | 105° |
| 2026-04-28 14:08 | 61.58318 | -3.93426 | 30986 ft | 465 kts | 105° |
| 2026-04-28 14:08 | 61.57456 | -3.86881 | 31280 ft | 464 kts | 105° |
| 2026-04-28 14:09 | 61.56593 | -3.80366 | 31564 ft | 463 kts | 106° |
| 2026-04-28 14:09 | 61.55728 | -3.73844 | 31850 ft | 463 kts | 106° |
| 2026-04-28 14:09 | 61.54863 | -3.67328 | 32130 ft | 462 kts | 106° |
| 2026-04-28 14:09 | 61.54002 | -3.60843 | 32400 ft | 462 kts | 106° |
| 2026-04-28 14:10 | 61.53139 | -3.54377 | 32669 ft | 461 kts | 106° |
| 2026-04-28 14:10 | 61.52267 | -3.47890 | 32939 ft | 461 kts | 106° |
| 2026-04-28 14:10 | 61.51395 | -3.41453 | 33201 ft | 460 kts | 106° |
| 2026-04-28 14:10 | 61.50518 | -3.35011 | 33465 ft | 459 kts | 106° |
| 2026-04-28 14:11 | 61.49635 | -3.28562 | 33722 ft | 459 kts | 106° |
| 2026-04-28 14:11 | 61.48764 | -3.22227 | 33976 ft | 458 kts | 106° |
| 2026-04-28 14:11 | 61.47880 | -3.15807 | 34235 ft | 458 kts | 106° |
| 2026-04-28 14:11 | 61.46994 | -3.09417 | 34492 ft | 457 kts | 106° |
| 2026-04-28 14:12 | 61.46105 | -3.03031 | 34741 ft | 457 kts | 107° |
| 2026-04-28 14:12 | 61.45217 | -2.96657 | 34971 ft | 456 kts | 107° |
| 2026-04-28 14:12 | 61.44327 | -2.90281 | 35196 ft | 456 kts | 107° |
| 2026-04-28 14:12 | 61.43438 | -2.83921 | 35414 ft | 455 kts | 107° |
| 2026-04-28 14:13 | 61.42551 | -2.77588 | 35625 ft | 455 kts | 107° |
| 2026-04-28 14:13 | 61.41657 | -2.71241 | 36415 ft | 454 kts | 105° |
| 2026-04-28 14:13 | 61.40759 | -2.64905 | 36550 ft | 456 kts | 105° |
| 2026-04-28 14:13 | 61.39851 | -2.58540 | 36686 ft | 458 kts | 105° |
| 2026-04-28 14:14 | 61.38948 | -2.52241 | 36816 ft | 459 kts | 105° |
| 2026-04-28 14:14 | 61.38030 | -2.45863 | 36947 ft | 460 kts | 105° |
| 2026-04-28 14:14 | 61.37104 | -2.39447 | 37083 ft | 461 kts | 105° |
| 2026-04-28 14:14 | 61.36177 | -2.33029 | 37220 ft | 462 kts | 105° |
| 2026-04-28 14:15 | 61.35247 | -2.26607 | 37384 ft | 462 kts | 105° |
| 2026-04-28 14:15 | 61.34311 | -2.20178 | 37463 ft | 464 kts | 105° |
| 2026-04-28 14:15 | 61.32427 | -2.07338 | 37473 ft | 464 kts | 105° |
| 2026-04-28 14:16 | 61.30522 | -1.94476 | 37473 ft | 465 kts | 105° |
| 2026-04-28 14:16 | 61.28614 | -1.81621 | 37476 ft | 465 kts | 104° |
| 2026-04-28 14:17 | 61.26696 | -1.68798 | 37472 ft | 465 kts | 105° |
| 2026-04-28 14:17 | 61.24767 | -1.56059 | 37478 ft | 465 kts | 105° |
| 2026-04-28 14:18 | 61.22818 | -1.43266 | 37484 ft | 465 kts | 105° |
| 2026-04-28 14:18 | 61.20855 | -1.30463 | 37488 ft | 465 kts | 105° |
| 2026-04-28 14:19 | 61.18880 | -1.17688 | 37503 ft | 465 kts | 105° |
| 2026-04-28 14:19 | 61.16900 | -1.04948 | 37505 ft | 464 kts | 104° |
| 2026-04-28 14:20 | 61.14917 | -0.92300 | 37502 ft | 464 kts | 105° |
| 2026-04-28 14:20 | 61.12912 | -0.79613 | 37505 ft | 463 kts | 104° |
| 2026-04-28 14:21 | 61.10896 | -0.66946 | 37509 ft | 463 kts | 104° |
| 2026-04-28 14:21 | 61.08878 | -0.54315 | 37511 ft | 463 kts | 104° |
| 2026-04-28 14:22 | 61.06843 | -0.41704 | 37514 ft | 462 kts | 104° |
| 2026-04-28 14:22 | 61.04796 | -0.29111 | 37512 ft | 462 kts | 104° |
| 2026-04-28 14:23 | 61.02738 | -0.16540 | 37508 ft | 462 kts | 104° |
| 2026-04-28 14:23 | 61.00512 | -0.04195 | 37510 ft | 466 kts | 113° |
| 2026-04-28 14:24 | 60.96748 | 0.06745 | 37505 ft | 473 kts | 132° |
| 2026-04-28 14:24 | 60.92081 | 0.16317 | 37503 ft | 474 kts | 132° |
| 2026-04-28 14:25 | 60.87406 | 0.25906 | 37508 ft | 474 kts | 132° |
| 2026-04-28 14:25 | 60.82729 | 0.35471 | 37508 ft | 475 kts | 132° |
| 2026-04-28 14:26 | 60.78036 | 0.45006 | 37514 ft | 475 kts | 132° |
| 2026-04-28 14:26 | 60.73337 | 0.54527 | 37516 ft | 476 kts | 132° |
| 2026-04-28 14:27 | 60.68620 | 0.64019 | 37521 ft | 476 kts | 132° |
| 2026-04-28 14:27 | 60.63883 | 0.73504 | 37523 ft | 477 kts | 132° |
| 2026-04-28 14:28 | 60.59139 | 0.82970 | 37522 ft | 477 kts | 132° |
| 2026-04-28 14:28 | 60.54421 | 0.92347 | 37529 ft | 477 kts | 132° |
| 2026-04-28 14:29 | 60.49662 | 1.01767 | 37534 ft | 478 kts | 132° |
| 2026-04-28 14:29 | 60.44893 | 1.11170 | 37535 ft | 478 kts | 132° |
| 2026-04-28 14:30 | 60.40127 | 1.20524 | 37541 ft | 478 kts | 132° |
| 2026-04-28 14:30 | 60.35340 | 1.29864 | 37543 ft | 478 kts | 132° |
| 2026-04-28 14:31 | 60.30554 | 1.39149 | 37545 ft | 478 kts | 132° |
| 2026-04-28 14:31 | 60.25758 | 1.48437 | 37546 ft | 478 kts | 132° |
| 2026-04-28 14:32 | 60.20956 | 1.57697 | 37546 ft | 478 kts | 132° |
| 2026-04-28 14:32 | 60.16173 | 1.66880 | 37549 ft | 478 kts | 132° |
| 2026-04-28 14:33 | 60.11364 | 1.76065 | 37548 ft | 478 kts | 132° |
| 2026-04-28 14:33 | 60.06543 | 1.85256 | 37551 ft | 478 kts | 132° |
| 2026-04-28 14:34 | 59.99298 | 1.99000 | 37551 ft | 478 kts | 132° |
| 2026-04-28 14:35 | 59.94462 | 2.08112 | 37547 ft | 478 kts | 132° |
| 2026-04-28 14:35 | 59.89611 | 2.17197 | 37548 ft | 478 kts | 132° |
| 2026-04-28 14:36 | 59.84755 | 2.26259 | 37543 ft | 478 kts | 132° |
| 2026-04-28 14:36 | 59.79902 | 2.35286 | 37546 ft | 478 kts | 132° |
| 2026-04-28 14:37 | 59.75066 | 2.44245 | 37545 ft | 478 kts | 131° |
| 2026-04-28 14:37 | 59.70169 | 2.53283 | 37552 ft | 478 kts | 132° |
| 2026-04-28 14:38 | 59.65326 | 2.62189 | 37549 ft | 478 kts | 131° |
| 2026-04-28 14:38 | 59.60446 | 2.71142 | 37549 ft | 478 kts | 131° |
| 2026-04-28 14:39 | 59.55551 | 2.80076 | 37553 ft | 479 kts | 131° |
| 2026-04-28 14:39 | 59.50655 | 2.88969 | 37554 ft | 479 kts | 131° |
| 2026-04-28 14:40 | 59.45747 | 2.97828 | 37562 ft | 479 kts | 132° |
| 2026-04-28 14:40 | 59.40821 | 3.06699 | 37557 ft | 479 kts | 132° |
| 2026-04-28 14:41 | 59.35899 | 3.15521 | 37563 ft | 479 kts | 132° |
| 2026-04-28 14:41 | 59.30998 | 3.24272 | 37553 ft | 479 kts | 132° |
| 2026-04-28 14:42 | 59.26052 | 3.33046 | 37553 ft | 479 kts | 132° |
| 2026-04-28 14:42 | 59.21105 | 3.41797 | 37553 ft | 479 kts | 132° |
| 2026-04-28 14:43 | 59.16162 | 3.50536 | 37557 ft | 479 kts | 132° |
| 2026-04-28 14:43 | 59.12048 | 3.57769 | 37556 ft | 479 kts | 132° |
| 2026-04-28 14:44 | 59.06284 | 3.67852 | 37557 ft | 479 kts | 132° |
| 2026-04-28 14:44 | 59.02127 | 3.75095 | 37558 ft | 478 kts | 132° |
| 2026-04-28 14:45 | 58.97203 | 3.83632 | 37557 ft | 478 kts | 132° |
| 2026-04-28 14:45 | 58.92240 | 3.92203 | 37555 ft | 477 kts | 132° |
| 2026-04-28 14:46 | 58.87281 | 4.00753 | 37551 ft | 477 kts | 132° |
| 2026-04-28 14:46 | 58.82319 | 4.09272 | 37555 ft | 477 kts | 132° |
| 2026-04-28 14:47 | 58.77353 | 4.17764 | 37554 ft | 477 kts | 132° |
| 2026-04-28 14:47 | 58.72383 | 4.26209 | 37550 ft | 476 kts | 132° |
| 2026-04-28 14:48 | 58.67420 | 4.34617 | 37548 ft | 476 kts | 132° |
| 2026-04-28 14:48 | 58.62450 | 4.43017 | 37548 ft | 475 kts | 132° |
| 2026-04-28 14:49 | 58.57478 | 4.51383 | 37544 ft | 476 kts | 132° |
| 2026-04-28 14:49 | 58.52499 | 4.59708 | 37540 ft | 476 kts | 133° |
| 2026-04-28 14:50 | 58.47506 | 4.68020 | 37536 ft | 476 kts | 133° |
| 2026-04-28 14:50 | 58.42513 | 4.76321 | 37537 ft | 475 kts | 133° |
| 2026-04-28 14:51 | 58.37530 | 4.84596 | 37539 ft | 475 kts | 133° |
| 2026-04-28 14:51 | 58.32564 | 4.92786 | 37536 ft | 475 kts | 133° |
| 2026-04-28 14:52 | 58.27559 | 5.00999 | 37535 ft | 475 kts | 133° |
| 2026-04-28 14:52 | 58.22551 | 5.09187 | 37538 ft | 475 kts | 133° |
| 2026-04-28 14:53 | 58.17547 | 5.17343 | 37536 ft | 475 kts | 133° |
| 2026-04-28 14:53 | 58.12537 | 5.25496 | 37535 ft | 474 kts | 133° |
| 2026-04-28 14:54 | 58.07516 | 5.33613 | 37528 ft | 474 kts | 133° |
| 2026-04-28 14:54 | 58.02490 | 5.41699 | 37533 ft | 475 kts | 133° |
| 2026-04-28 14:55 | 57.97462 | 5.49765 | 37531 ft | 474 kts | 133° |
| 2026-04-28 14:55 | 57.92433 | 5.57815 | 37528 ft | 474 kts | 133° |
| 2026-04-28 14:56 | 57.87393 | 5.65844 | 37526 ft | 475 kts | 133° |
| 2026-04-28 14:56 | 57.82351 | 5.73847 | 37526 ft | 474 kts | 133° |
| 2026-04-28 14:57 | 57.77301 | 5.81834 | 37534 ft | 474 kts | 134° |
| 2026-04-28 14:57 | 57.72245 | 5.89788 | 37531 ft | 474 kts | 134° |
| 2026-04-28 14:58 | 57.67196 | 5.97718 | 37530 ft | 474 kts | 134° |
| 2026-04-28 14:58 | 57.62129 | 6.05638 | 37534 ft | 474 kts | 134° |
| 2026-04-28 14:59 | 57.57093 | 6.13472 | 37531 ft | 474 kts | 134° |
| 2026-04-28 14:59 | 57.52027 | 6.21332 | 37531 ft | 474 kts | 134° |
| 2026-04-28 15:00 | 57.46956 | 6.29189 | 37530 ft | 473 kts | 134° |
| 2026-04-28 15:00 | 57.41884 | 6.37003 | 37530 ft | 473 kts | 134° |
| 2026-04-28 15:01 | 57.36808 | 6.44770 | 37528 ft | 473 kts | 134° |
| 2026-04-28 15:01 | 57.31737 | 6.52520 | 37504 ft | 473 kts | 134° |
| 2026-04-28 15:02 | 57.26681 | 6.60227 | 37258 ft | 473 kts | 134° |
| 2026-04-28 15:02 | 57.24144 | 6.64071 | 37005 ft | 473 kts | 134° |
| 2026-04-28 15:02 | 57.21602 | 6.67923 | 36749 ft | 473 kts | 134° |
| 2026-04-28 15:02 | 57.19060 | 6.71777 | 36494 ft | 473 kts | 134° |
| 2026-04-28 15:03 | 57.16520 | 6.75623 | 36256 ft | 473 kts | 134° |
| 2026-04-28 15:03 | 57.13969 | 6.79473 | 36001 ft | 473 kts | 134° |
| 2026-04-28 15:03 | 57.11420 | 6.83308 | 35749 ft | 474 kts | 134° |
| 2026-04-28 15:03 | 57.08868 | 6.87138 | 35505 ft | 474 kts | 134° |
| 2026-04-28 15:04 | 57.06310 | 6.90969 | 35238 ft | 474 kts | 134° |
| 2026-04-28 15:04 | 57.03738 | 6.94818 | 34283 ft | 481 kts | 133° |
| 2026-04-28 15:04 | 57.01141 | 6.98706 | 33378 ft | 482 kts | 133° |
| 2026-04-28 15:04 | 56.98557 | 7.02556 | 32857 ft | 475 kts | 133° |
| 2026-04-28 15:05 | 56.95999 | 7.06355 | 32220 ft | 471 kts | 133° |
| 2026-04-28 15:05 | 56.93464 | 7.10115 | 31610 ft | 468 kts | 133° |
| 2026-04-28 15:05 | 56.90937 | 7.13858 | 31000 ft | 465 kts | 133° |
| 2026-04-28 15:05 | 56.88432 | 7.17565 | 30366 ft | 462 kts | 133° |
| 2026-04-28 15:06 | 56.85940 | 7.21246 | 29757 ft | 458 kts | 133° |
| 2026-04-28 15:06 | 56.83504 | 7.24834 | 29169 ft | 453 kts | 134° |
| 2026-04-28 15:06 | 56.81060 | 7.28426 | 28610 ft | 449 kts | 134° |
| 2026-04-28 15:06 | 56.78637 | 7.31983 | 28019 ft | 445 kts | 134° |
| 2026-04-28 15:07 | 56.76236 | 7.35500 | 27463 ft | 441 kts | 134° |
| 2026-04-28 15:07 | 56.73855 | 7.38982 | 26920 ft | 437 kts | 134° |
| 2026-04-28 15:07 | 56.71486 | 7.42436 | 26393 ft | 433 kts | 134° |
| 2026-04-28 15:07 | 56.69146 | 7.45845 | 25870 ft | 430 kts | 134° |
| 2026-04-28 15:08 | 56.66817 | 7.49237 | 25366 ft | 426 kts | 134° |
| 2026-04-28 15:08 | 56.64511 | 7.52595 | 24859 ft | 423 kts | 134° |
| 2026-04-28 15:08 | 56.62224 | 7.55925 | 24362 ft | 421 kts | 134° |
| 2026-04-28 15:08 | 56.59915 | 7.59279 | 23819 ft | 418 kts | 135° |
| 2026-04-28 15:09 | 56.57677 | 7.62517 | 23302 ft | 415 kts | 135° |
| 2026-04-28 15:09 | 56.55428 | 7.65768 | 22799 ft | 411 kts | 135° |
| 2026-04-28 15:09 | 56.53196 | 7.68994 | 22300 ft | 409 kts | 135° |
| 2026-04-28 15:09 | 56.51701 | 7.71154 | 21963 ft | 407 kts | 135° |
| 2026-04-28 15:10 | 56.48780 | 7.75367 | 21284 ft | 404 kts | 136° |
| 2026-04-28 15:10 | 56.46587 | 7.78522 | 20776 ft | 402 kts | 136° |
| 2026-04-28 15:10 | 56.44395 | 7.81664 | 20260 ft | 401 kts | 136° |
| 2026-04-28 15:10 | 56.42211 | 7.84791 | 19748 ft | 400 kts | 137° |
| 2026-04-28 15:11 | 56.40035 | 7.87906 | 19235 ft | 399 kts | 137° |
| 2026-04-28 15:11 | 56.37862 | 7.91006 | 18610 ft | 399 kts | 137° |
| 2026-04-28 15:11 | 56.35658 | 7.94158 | 17887 ft | 403 kts | 138° |
| 2026-04-28 15:11 | 56.33490 | 7.97244 | 17598 ft | 394 kts | 138° |
| 2026-04-28 15:12 | 56.31346 | 8.00288 | 17122 ft | 390 kts | 138° |
| 2026-04-28 15:12 | 56.29222 | 8.03305 | 16645 ft | 387 kts | 139° |
| 2026-04-28 15:12 | 56.27117 | 8.06288 | 16209 ft | 384 kts | 139° |
| 2026-04-28 15:12 | 56.25024 | 8.09247 | 15763 ft | 380 kts | 139° |
| 2026-04-28 15:13 | 56.22948 | 8.12183 | 15315 ft | 377 kts | 139° |
| 2026-04-28 15:13 | 56.20900 | 8.15079 | 14903 ft | 374 kts | 139° |
| 2026-04-28 15:13 | 56.18864 | 8.17950 | 14489 ft | 371 kts | 140° |
| 2026-04-28 15:13 | 56.16871 | 8.20756 | 14055 ft | 367 kts | 140° |
| 2026-04-28 15:14 | 56.14865 | 8.23579 | 13573 ft | 364 kts | 140° |
| 2026-04-28 15:14 | 56.12884 | 8.26357 | 13054 ft | 360 kts | 140° |
| 2026-04-28 15:14 | 56.10915 | 8.29106 | 12426 ft | 357 kts | 140° |
| 2026-04-28 15:14 | 56.08969 | 8.31823 | 11819 ft | 353 kts | 140° |
| 2026-04-28 15:15 | 56.07048 | 8.34514 | 11225 ft | 349 kts | 140° |
| 2026-04-28 15:15 | 56.05761 | 8.36316 | 10823 ft | 346 kts | 140° |
| 2026-04-28 15:15 | 56.03276 | 8.39784 | 10298 ft | 332 kts | 140° |
| 2026-04-28 15:15 | 56.01512 | 8.42237 | 10161 ft | 311 kts | 140° |
| 2026-04-28 15:16 | 55.99828 | 8.44577 | 9932 ft | 302 kts | 140° |
| 2026-04-28 15:16 | 55.98179 | 8.46868 | 9504 ft | 302 kts | 140° |
| 2026-04-28 15:16 | 55.96534 | 8.49164 | 9210 ft | 297 kts | 139° |
| 2026-04-28 15:16 | 55.94909 | 8.51428 | 8838 ft | 295 kts | 140° |
| 2026-04-28 15:17 | 55.93293 | 8.53665 | 8425 ft | 292 kts | 140° |
| 2026-04-28 15:17 | 55.91697 | 8.55876 | 7895 ft | 289 kts | 140° |
| 2026-04-28 15:17 | 55.90113 | 8.58069 | 7425 ft | 287 kts | 140° |
| 2026-04-28 15:17 | 55.88539 | 8.60242 | 7059 ft | 284 kts | 140° |
| 2026-04-28 15:18 | 55.86980 | 8.62392 | 6666 ft | 281 kts | 140° |
| 2026-04-28 15:18 | 55.85438 | 8.64516 | 6235 ft | 279 kts | 140° |
| 2026-04-28 15:18 | 55.83909 | 8.66623 | 5833 ft | 277 kts | 140° |
| 2026-04-28 15:18 | 55.82391 | 8.68713 | 5472 ft | 275 kts | 140° |
| 2026-04-28 15:19 | 55.80855 | 8.70827 | 4739 ft | 285 kts | 140° |
| 2026-04-28 15:19 | 55.79269 | 8.73010 | 4203 ft | 284 kts | 140° |
| 2026-04-28 15:19 | 55.77756 | 8.75074 | 4036 ft | 263 kts | 140° |
| 2026-04-28 15:19 | 55.76375 | 8.76951 | 3924 ft | 245 kts | 140° |
| 2026-04-28 15:20 | 55.75046 | 8.78767 | 3811 ft | 237 kts | 140° |
| 2026-04-28 15:20 | 55.73897 | 8.80739 | 3719 ft | 223 kts | 122° |
| 2026-04-28 15:20 | 55.73233 | 8.83128 | 3599 ft | 212 kts | 102° |
| 2026-04-28 15:20 | 55.73069 | 8.85684 | 3369 ft | 208 kts | 84° |
| 2026-04-28 15:21 | 55.73155 | 8.88232 | 3127 ft | 206 kts | 84° |
| 2026-04-28 15:21 | 55.73240 | 8.90749 | 2826 ft | 202 kts | 83° |
| 2026-04-28 15:21 | 55.73321 | 8.93208 | 2498 ft | 195 kts | 84° |
| 2026-04-28 15:21 | 55.73388 | 8.95524 | 2224 ft | 180 kts | 83° |
| 2026-04-28 15:22 | 55.73452 | 8.97633 | 2085 ft | 163 kts | 83° |
| 2026-04-28 15:22 | 55.73518 | 8.99586 | 1823 ft | 154 kts | 84° |
| 2026-04-28 15:22 | 55.73574 | 9.01439 | 1613 ft | 146 kts | 82° |
| 2026-04-28 15:22 | 55.73649 | 9.03220 | 1413 ft | 144 kts | 83° |
| 2026-04-28 15:23 | 55.73697 | 9.04984 | 1216 ft | 142 kts | 84° |
| 2026-04-28 15:23 | 55.73749 | 9.06733 | 991 ft | 143 kts | 84° |
| 2026-04-28 15:23 | 55.73815 | 9.08490 | 830 ft | 142 kts | 83° |
| 2026-04-28 15:23 | 55.73869 | 9.10245 | 682 ft | 142 kts | 84° |
| 2026-04-28 15:24 | 55.73922 | 9.12007 | 407 ft | 142 kts | 84° |
| 2026-04-28 15:24 | 55.73992 | 9.13762 | 230 ft | 142 kts | 85° |
| 2026-04-28 15:24 | 55.74037 | 9.15264 | 220 ft | 97 kts | 85° |
| 2026-04-28 15:24 | 55.74066 | 9.16156 | 216 ft | 48 kts | 87° |
| 2026-04-28 15:25 | 55.74075 | 9.16543 | 216 ft | 27 kts | 86° |
| 2026-04-28 15:25 | 55.74091 | 9.16862 | 218 ft | 22 kts | 72° |
| 2026-04-28 15:25 | 55.74205 | 9.16908 | 216 ft | 16 kts | 355° |
| 2026-04-28 15:25 | 55.74254 | 9.16794 | 216 ft | 13 kts | 263° |
| 2026-04-28 15:26 | 55.74245 | 9.16633 | 216 ft | 14 kts | 267° |
| 2026-04-28 15:26 | 55.74239 | 9.16396 | 216 ft | 24 kts | 267° |
| 2026-04-28 15:26 | 55.74229 | 9.16087 | 216 ft | 26 kts | 266° |
| 2026-04-28 15:26 | 55.74222 | 9.15870 | 221 ft | 27 kts | 266° |
| 2026-04-28 15:27 | 55.74209 | 9.15410 | 216 ft | 29 kts | 266° |
| 2026-04-28 15:27 | 55.74200 | 9.15175 | 216 ft | 25 kts | 265° |
| 2026-04-28 15:27 | 55.74270 | 9.14989 | 216 ft | 16 kts | 357° |
| 2026-04-28 15:27 | 55.74383 | 9.14981 | 216 ft | 17 kts | 356° |
| 2026-04-28 15:28 | 55.74453 | 9.14892 | 226 ft | 13 kts | 270° |
| 2026-04-28 15:28 | 55.74461 | 9.14749 | 222 ft | 8 kts | 320° |
| 2026-04-28 15:28 | 55.74488 | 9.14752 | 216 ft | 6 kts | 6° |
| 2026-04-28 15:28 | 55.74527 | 9.14750 | 220 ft | 1 kts | 356° |
| 2026-04-28 15:29 | 55.74536 | 9.14749 | 218 ft | 0 kts | 356° |